Time;durP1;ratioP1;P1;durP2;ratioP2;P2;SDS_P1;SDS_P2;PMS_P1;PMS_P2;Temp;Humidity;BMP_temperature;BMP_pressure;BME280_temperature;BME280_humidity;BME280_pressure;Samples;Min_cycle;Max_cycle;Signal;HPM_P1;HPM_P2
2022/04/15 00:00:25;;;;;;;24.00;16.88;;;;;;;;;;5281030;28;20375;-68
2022/04/15 00:02:56;;;;;;;27.55;17.33;;;;;;;;;;5282466;28;20020;-67
2022/04/15 00:05:34;;;;;;;24.02;17.42;;;;;;;;;;5281263;28;20355;-68
2022/04/15 00:08:12;;;;;;;24.50;17.63;;;;;;;;;;5282428;28;20020;-67
2022/04/15 00:10:45;;;;;;;24.65;16.83;;;;;;;;;;5281845;28;20048;-68
2022/04/15 00:13:19;;;;;;;22.45;17.90;;;;;;;;;;5281358;28;20107;-68
2022/04/15 00:15:51;;;;;;;25.08;18.45;;;;;;;;;;5282109;28;20070;-68
2022/04/15 00:18:22;;;;;;;25.15;17.83;;;;;;;;;;5281691;28;20051;-69
2022/04/15 00:20:53;;;;;;;26.48;17.85;;;;;;;;;;5281566;28;20028;-68
2022/04/15 00:23:24;;;;;;;24.33;18.73;;;;;;;;;;5281440;28;20320;-68
2022/04/15 00:25:56;;;;;;;32.88;18.38;;;;;;;;;;5281463;28;20028;-68
2022/04/15 00:28:28;;;;;;;25.88;20.13;;;;;;;;;;5281750;28;20017;-68
2022/04/15 00:30:59;;;;;;;23.77;19.80;;;;;;;;;;5282150;28;20380;-68
2022/04/15 00:33:30;;;;;;;24.95;18.92;;;;;;;;;;5280656;28;20266;-68
2022/04/15 00:36:01;;;;;;;26.83;21.20;;;;;;;;;;5281790;28;20305;-68
2022/04/15 00:38:34;;;;;;;25.90;20.50;;;;;;;;;;5281606;28;20442;-68
2022/04/15 00:41:05;;;;;;;27.65;20.55;;;;;;;;;;5281292;28;20273;-68
2022/04/15 00:43:36;;;;;;;26.40;19.00;;;;;;;;;;5281411;28;20111;-68
2022/04/15 00:46:08;;;;;;;25.77;19.98;;;;;;;;;;5281940;28;20595;-68
2022/04/15 00:48:39;;;;;;;25.88;20.20;;;;;;;;;;5280637;28;20273;-68
2022/04/15 00:51:11;;;;;;;31.92;20.35;;;;;;;;;;5282044;28;20443;-68
2022/04/15 00:53:44;;;;;;;26.38;19.88;;;;;;;;;;5281267;28;20028;-68
2022/04/15 00:56:16;;;;;;;25.70;20.35;;;;;;;;;;5282102;28;20375;-68
2022/04/15 00:58:47;;;;;;;28.65;21.02;;;;;;;;;;5281349;28;20139;-68
2022/04/15 01:01:18;;;;;;;24.55;19.63;;;;;;;;;;5281013;28;20028;-68
2022/04/15 01:03:50;;;;;;;26.83;20.35;;;;;;;;;;5281577;28;20548;-68
2022/04/15 01:06:22;;;;;;;24.48;20.02;;;;;;;;;;5281173;28;20354;-68
2022/04/15 01:08:55;;;;;;;25.13;20.08;;;;;;;;;;5280807;28;20017;-68
2022/04/15 01:11:27;;;;;;;25.35;19.70;;;;;;;;;;5280773;28;20023;-68
2022/04/15 01:13:59;;;;;;;27.00;21.15;;;;;;;;;;5281401;28;20483;-68
2022/04/15 01:16:32;;;;;;;30.55;21.63;;;;;;;;;;5280169;28;20399;-69
2022/04/15 01:19:04;;;;;;;27.83;22.67;;;;;;;;;;5281553;28;20078;-66
2022/04/15 01:21:37;;;;;;;29.92;22.35;;;;;;;;;;5280836;28;20480;-67
2022/04/15 01:24:08;;;;;;;31.73;22.17;;;;;;;;;;5280695;28;20075;-68
2022/04/15 01:26:39;;;;;;;28.00;21.33;;;;;;;;;;5281276;28;20490;-69
2022/04/15 01:29:10;;;;;;;29.38;21.35;;;;;;;;;;5280892;28;20076;-67
2022/04/15 01:31:41;;;;;;;24.50;20.45;;;;;;;;;;5280990;28;20479;-68
2022/04/15 01:34:12;;;;;;;29.42;20.38;;;;;;;;;;5281457;28;20357;-69
2022/04/15 01:36:43;;;;;;;25.58;19.92;;;;;;;;;;5280410;28;20021;-67
2022/04/15 01:39:15;;;;;;;25.92;19.14;;;;;;;;;;5281603;28;20024;-68
2022/04/15 01:41:46;;;;;;;27.63;19.70;;;;;;;;;;5280881;28;20020;-68
2022/04/15 01:44:18;;;;;;;28.14;20.42;;;;;;;;;;5280666;28;20032;-68
2022/04/15 01:46:49;;;;;;;25.58;19.90;;;;;;;;;;5281026;28;20043;-67
2022/04/15 01:49:20;;;;;;;26.40;20.30;;;;;;;;;;5281110;28;20095;-68
2022/04/15 01:51:51;;;;;;;26.35;19.63;;;;;;;;;;5280517;28;20021;-67
2022/04/15 01:54:22;;;;;;;25.73;19.00;;;;;;;;;;5280811;28;20031;-68
2022/04/15 01:56:54;;;;;;;27.00;19.30;;;;;;;;;;5281262;28;20282;-69
2022/04/15 01:59:25;;;;;;;26.45;20.02;;;;;;;;;;5279913;28;20026;-68
2022/04/15 02:01:56;;;;;;;29.58;20.48;;;;;;;;;;5281413;28;20374;-68
2022/04/15 02:04:28;;;;;;;27.10;20.94;;;;;;;;;;5279894;28;20040;-67
2022/04/15 02:06:59;;;;;;;30.38;23.08;;;;;;;;;;5281279;28;20013;-68
2022/04/15 02:09:30;;;;;;;35.25;23.75;;;;;;;;;;5280674;28;20028;-67
2022/04/15 02:12:01;;;;;;;31.64;24.14;;;;;;;;;;5280307;28;20062;-68
2022/04/15 02:14:32;;;;;;;30.05;22.60;;;;;;;;;;5280234;28;20051;-68
2022/04/15 02:17:04;;;;;;;27.95;21.77;;;;;;;;;;5281018;28;20056;-67
2022/04/15 02:19:35;;;;;;;30.05;21.30;;;;;;;;;;5280062;28;20016;-68
2022/04/15 02:22:06;;;;;;;25.95;20.58;;;;;;;;;;5280817;28;20031;-67
2022/04/15 02:24:38;;;;;;;27.55;20.55;;;;;;;;;;5283140;28;20614;-67
2022/04/15 02:27:09;;;;;;;26.83;20.73;;;;;;;;;;5284062;28;20020;-67
2022/04/15 02:29:40;;;;;;;26.18;18.84;;;;;;;;;;5284020;28;20032;-68
2022/04/15 02:32:11;;;;;;;25.02;18.77;;;;;;;;;;5283759;28;20020;-67
2022/04/15 02:34:42;;;;;;;27.70;19.55;;;;;;;;;;5283761;28;20316;-68
2022/04/15 02:37:13;;;;;;;27.80;20.25;;;;;;;;;;5284348;28;20028;-67
2022/04/15 02:39:45;;;;;;;26.60;19.60;;;;;;;;;;5283273;28;20830;-68
2022/04/15 02:42:16;;;;;;;28.83;21.23;;;;;;;;;;5284519;28;20016;-67
2022/04/15 02:44:47;;;;;;;25.12;20.00;;;;;;;;;;5283658;28;20024;-67
2022/04/15 02:47:18;;;;;;;26.95;19.73;;;;;;;;;;5283176;28;20028;-68
2022/04/15 02:49:49;;;;;;;23.20;17.98;;;;;;;;;;5284029;28;20463;-67
2022/04/15 02:52:21;;;;;;;23.38;17.67;;;;;;;;;;5283988;28;20013;-68
2022/04/15 02:54:52;;;;;;;24.73;18.23;;;;;;;;;;5283277;28;20070;-68
2022/04/15 02:57:23;;;;;;;23.30;17.78;;;;;;;;;;5283180;28;20028;-68
2022/04/15 02:59:54;;;;;;;19.88;17.15;;;;;;;;;;5284155;28;20502;-68
2022/04/15 03:02:25;;;;;;;23.42;17.72;;;;;;;;;;5282890;28;20036;-68
2022/04/15 03:04:56;;;;;;;22.73;17.65;;;;;;;;;;5283982;28;20033;-68
2022/04/15 03:07:28;;;;;;;26.70;19.38;;;;;;;;;;5282568;28;20019;-68
2022/04/15 03:09:59;;;;;;;27.30;19.58;;;;;;;;;;5283554;28;20259;-68
2022/04/15 03:12:34;;;;;;;26.20;18.20;;;;;;;;;;5283079;28;20358;-68
2022/04/15 03:15:09;;;;;;;25.98;18.77;;;;;;;;;;5283151;28;20075;-68
2022/04/15 03:17:40;;;;;;;26.80;18.30;;;;;;;;;;5283165;28;20202;-68
2022/04/15 03:20:13;;;;;;;25.02;17.90;;;;;;;;;;5283651;28;20099;-68
2022/04/15 03:22:44;;;;;;;28.30;19.00;;;;;;;;;;5282479;28;20040;-68
2022/04/15 03:25:19;;;;;;;22.83;17.95;;;;;;;;;;5283621;28;20101;-69
2022/04/15 03:27:50;;;;;;;27.10;18.70;;;;;;;;;;5283202;28;20020;-68
2022/04/15 03:30:21;;;;;;;29.20;19.63;;;;;;;;;;5282221;28;20398;-68
2022/04/15 03:32:53;;;;;;;26.98;19.64;;;;;;;;;;5283400;28;20067;-68
2022/04/15 03:35:24;;;;;;;23.48;16.95;;;;;;;;;;5282472;28;20025;-68
2022/04/15 03:37:55;;;;;;;26.95;18.65;;;;;;;;;;5282615;28;20387;-68
2022/04/15 03:40:26;;;;;;;30.17;18.85;;;;;;;;;;5282664;28;20013;-69
2022/04/15 03:42:58;;;;;;;27.24;19.92;;;;;;;;;;5282459;28;20021;-67
2022/04/15 03:45:30;;;;;;;26.65;19.15;;;;;;;;;;5282709;28;20048;-68
2022/04/15 03:48:01;;;;;;;27.50;18.95;;;;;;;;;;5283112;28;20099;-68
2022/04/15 03:50:33;;;;;;;25.63;19.33;;;;;;;;;;5281797;28;20475;-67
2022/04/15 03:53:04;;;;;;;26.65;19.58;;;;;;;;;;5283146;28;20104;-68
2022/04/15 03:55:35;;;;;;;26.20;19.90;;;;;;;;;;5282553;28;20035;-68
2022/04/15 03:58:07;;;;;;;29.02;19.95;;;;;;;;;;5282117;28;20016;-69
2022/04/15 04:00:38;;;;;;;31.27;19.65;;;;;;;;;;5282406;28;20129;-68
2022/04/15 04:03:09;;;;;;;26.40;18.84;;;;;;;;;;5282605;28;20016;-69
2022/04/15 04:05:41;;;;;;;30.88;20.08;;;;;;;;;;5281188;28;20028;-68
2022/04/15 04:08:12;;;;;;;27.42;20.27;;;;;;;;;;5282294;28;20032;-68
2022/04/15 04:10:43;;;;;;;32.67;21.58;;;;;;;;;;5280872;28;20039;-68
2022/04/15 04:13:14;;;;;;;31.52;21.24;;;;;;;;;;5281979;28;20040;-68
2022/04/15 04:15:45;;;;;;;40.02;25.24;;;;;;;;;;5281813;28;20029;-67
2022/04/15 04:18:20;;;;;;;40.90;25.73;;;;;;;;;;5281295;28;20020;-67
2022/04/15 04:20:52;;;;;;;70.20;28.63;;;;;;;;;;5281742;28;20049;-67
2022/04/15 04:23:23;;;;;;;67.05;28.05;;;;;;;;;;5281368;28;20063;-69
2022/04/15 04:25:54;;;;;;;125.38;26.82;;;;;;;;;;5281102;28;20464;-69
2022/04/15 04:28:25;;;;;;;147.25;25.70;;;;;;;;;;5281811;28;20025;-69
2022/04/15 04:30:56;;;;;;;135.82;26.02;;;;;;;;;;5282172;28;20378;-69
2022/04/15 04:33:27;;;;;;;153.63;27.88;;;;;;;;;;5280783;28;20021;-69
2022/04/15 04:35:58;;;;;;;117.50;25.10;;;;;;;;;;5281960;28;20043;-67
2022/04/15 04:38:31;;;;;;;136.62;25.90;;;;;;;;;;5281390;28;20306;-68
2022/04/15 04:41:02;;;;;;;78.05;24.20;;;;;;;;;;5281028;28;20091;-68
2022/04/15 04:43:33;;;;;;;86.25;23.45;;;;;;;;;;5280990;28;20103;-68
2022/04/15 04:46:05;;;;;;;69.15;25.55;;;;;;;;;;5280528;28;20017;-68
2022/04/15 04:48:36;;;;;;;97.07;24.23;;;;;;;;;;5281310;28;20016;-68
2022/04/15 04:51:07;;;;;;;106.10;24.42;;;;;;;;;;5281780;28;20035;-68
2022/04/15 04:53:38;;;;;;;69.50;24.90;;;;;;;;;;5280646;28;20267;-68
2022/04/15 04:56:09;;;;;;;112.45;23.83;;;;;;;;;;5281865;28;20089;-68
2022/04/15 04:58:41;;;;;;;103.47;23.80;;;;;;;;;;5281101;28;20444;-69
2022/04/15 05:01:12;;;;;;;90.40;21.23;;;;;;;;;;5280698;28;20615;-69
2022/04/15 05:03:43;;;;;;;120.22;23.08;;;;;;;;;;5281077;28;20123;-69
2022/04/15 05:06:15;;;;;;;75.88;19.45;;;;;;;;;;5281737;28;20769;-67
2022/04/15 05:08:46;;;;;;;43.76;19.70;;;;;;;;;;5280276;28;20287;-66
2022/04/15 05:11:17;;;;;;;50.95;21.40;;;;;;;;;;5281934;28;20019;-68
2022/04/15 05:13:50;;;;;;;54.30;20.42;;;;;;;;;;5280838;28;20385;-67
2022/04/15 05:16:21;;;;;;;49.55;20.13;;;;;;;;;;5280411;28;20034;-68
2022/04/15 05:18:52;;;;;;;26.32;19.12;;;;;;;;;;5281888;28;20024;-69
2022/04/15 05:21:23;;;;;;;55.25;18.73;;;;;;;;;;5280089;28;20033;-67
2022/04/15 05:23:54;;;;;;;42.60;19.32;;;;;;;;;;5281596;28;20879;-67
2022/04/15 05:26:25;;;;;;;29.78;20.38;;;;;;;;;;5281004;28;20387;-68
2022/04/15 05:28:57;;;;;;;28.68;19.10;;;;;;;;;;5280780;28;20459;-68
2022/04/15 05:31:28;;;;;;;63.78;19.60;;;;;;;;;;5281095;28;20100;-68
2022/04/15 05:34:00;;;;;;;59.65;18.67;;;;;;;;;;5281191;28;20266;-68
2022/04/15 05:36:32;;;;;;;56.13;20.25;;;;;;;;;;5279874;28;20009;-68
2022/04/15 05:39:03;;;;;;;72.95;23.33;;;;;;;;;;5281661;28;20017;-68
2022/04/15 05:41:34;;;;;;;63.13;21.30;;;;;;;;;;5280951;28;20052;-68
2022/04/15 05:44:07;;;;;;;84.40;22.13;;;;;;;;;;5280398;28;20025;-67
2022/04/15 05:46:38;;;;;;;50.97;21.85;;;;;;;;;;5280912;28;20055;-68
2022/04/15 05:49:17;;;;;;;36.80;21.05;;;;;;;;;;5280627;28;20051;-68
2022/04/15 05:51:49;;;;;;;36.65;18.67;;;;;;;;;;5281020;28;20017;-69
2022/04/15 05:54:20;;;;;;;31.55;20.58;;;;;;;;;;5281093;28;20027;-68
2022/04/15 05:56:51;;;;;;;44.40;21.48;;;;;;;;;;5280040;28;20030;-68
2022/04/15 05:59:23;;;;;;;32.38;20.77;;;;;;;;;;5283166;28;20013;-68
2022/04/15 06:01:54;;;;;;;42.13;21.73;;;;;;;;;;5285356;28;20040;-68
2022/04/15 06:04:25;;;;;;;30.17;20.13;;;;;;;;;;5283510;28;20490;-68
2022/04/15 06:06:56;;;;;;;37.30;20.96;;;;;;;;;;5284877;28;20201;-68
2022/04/15 06:09:27;;;;;;;26.35;20.85;;;;;;;;;;5284608;28;20021;-68
2022/04/15 06:11:58;;;;;;;70.75;21.50;;;;;;;;;;5284257;28;20020;-68
2022/04/15 06:14:33;;;;;;;34.13;20.55;;;;;;;;;;5284072;28;20321;-69
2022/04/15 06:17:04;;;;;;;30.90;20.90;;;;;;;;;;5284878;28;20282;-67
2022/04/15 06:19:35;;;;;;;39.20;22.48;;;;;;;;;;5283324;28;20044;-68
2022/04/15 06:22:06;;;;;;;33.08;21.48;;;;;;;;;;5284960;28;20024;-67
2022/04/15 06:24:37;;;;;;;41.40;24.55;;;;;;;;;;5283369;28;20857;-68
2022/04/15 06:27:09;;;;;;;39.90;24.44;;;;;;;;;;5284680;28;20295;-68
2022/04/15 06:29:40;;;;;;;30.27;21.83;;;;;;;;;;5284050;28;20020;-68
2022/04/15 06:32:11;;;;;;;31.42;21.90;;;;;;;;;;5283798;28;20031;-68
2022/04/15 06:34:42;;;;;;;31.13;23.02;;;;;;;;;;5284181;28;20056;-68
2022/04/15 06:37:13;;;;;;;29.96;22.24;;;;;;;;;;5284582;28;20286;-68
2022/04/15 06:39:50;;;;;;;29.25;21.55;;;;;;;;;;5283137;28;20391;-68
2022/04/15 06:42:21;;;;;;;30.77;21.17;;;;;;;;;;5283772;28;20265;-69
2022/04/15 06:44:53;;;;;;;27.55;19.48;;;;;;;;;;5284024;28;20025;-68
2022/04/15 06:47:24;;;;;;;26.77;19.13;;;;;;;;;;5282773;28;20016;-68
2022/04/15 06:49:56;;;;;;;27.90;19.63;;;;;;;;;;5284138;28;20025;-68
2022/04/15 06:52:27;;;;;;;24.35;18.60;;;;;;;;;;5282811;28;20402;-68
2022/04/15 06:54:58;;;;;;;25.50;17.60;;;;;;;;;;5284066;28;20029;-68
2022/04/15 06:57:31;;;;;;;29.20;18.94;;;;;;;;;;5283706;28;20308;-68
2022/04/15 07:00:03;;;;;;;24.15;18.60;;;;;;;;;;5283430;28;20017;-68
2022/04/15 07:02:35;;;;;;;24.45;19.92;;;;;;;;;;5283540;28;20028;-68
2022/04/15 07:05:09;;;;;;;23.13;17.95;;;;;;;;;;5283838;28;20060;-68
2022/04/15 07:07:40;;;;;;;24.33;17.63;;;;;;;;;;5282489;28;20017;-68
2022/04/15 07:10:11;;;;;;;25.23;17.58;;;;;;;;;;5283250;28;20044;-68
2022/04/15 07:12:43;;;;;;;22.70;18.17;;;;;;;;;;5283408;28;20500;-68
2022/04/15 07:15:14;;;;;;;22.65;17.10;;;;;;;;;;5283191;28;20158;-68
2022/04/15 07:17:46;;;;;;;23.42;16.90;;;;;;;;;;5283178;28;20421;-68
2022/04/15 07:20:17;;;;;;;21.90;16.95;;;;;;;;;;5283857;28;20395;-68
2022/04/15 07:22:54;;;;;;;22.65;17.25;;;;;;;;;;5282481;28;20110;-68
2022/04/15 07:25:25;;;;;;;24.05;16.80;;;;;;;;;;5283176;28;20033;-68
2022/04/15 07:27:56;;;;;;;25.55;19.30;;;;;;;;;;5282919;28;20016;-68
2022/04/15 07:30:29;;;;;;;22.23;16.42;;;;;;;;;;5282948;28;20113;-69
2022/04/15 07:33:02;;;;;;;25.25;17.13;;;;;;;;;;5283634;28;20422;-68
2022/04/15 07:35:33;;;;;;;17.00;14.82;;;;;;;;;;5281934;28;20087;-69
2022/04/15 07:38:04;;;;;;;21.02;14.65;;;;;;;;;;5283482;28;20024;-67
2022/04/15 07:40:35;;;;;;;18.23;14.90;;;;;;;;;;5282702;28;20263;-67
2022/04/15 07:43:06;;;;;;;18.15;15.50;;;;;;;;;;5282375;28;20410;-67
2022/04/15 07:45:38;;;;;;;19.70;16.00;;;;;;;;;;5282702;28;20274;-67
2022/04/15 07:48:10;;;;;;;23.00;16.08;;;;;;;;;;5283268;28;20456;-67
2022/04/15 07:50:42;;;;;;;20.23;16.08;;;;;;;;;;5281655;28;20024;-67
2022/04/15 07:53:13;;;;;;;25.42;15.88;;;;;;;;;;5283064;28;20351;-68
2022/04/15 07:55:44;;;;;;;22.50;15.50;;;;;;;;;;5281876;28;20099;-67
2022/04/15 07:58:15;;;;;;;17.05;14.90;;;;;;;;;;5283188;28;20542;-68
2022/04/15 08:00:46;;;;;;;19.90;15.10;;;;;;;;;;5282523;28;20314;-68
2022/04/15 08:03:20;;;;;;;20.52;15.58;;;;;;;;;;5282161;28;20055;-69
2022/04/15 08:05:51;;;;;;;26.15;17.38;;;;;;;;;;5278084;28;20028;-68
2022/04/15 08:08:22;;;;;;;23.45;16.63;;;;;;;;;;5280928;28;20031;-68
2022/04/15 08:10:53;;;;;;;22.40;15.63;;;;;;;;;;5281309;28;20025;-70
2022/04/15 08:13:24;;;;;;;21.80;15.80;;;;;;;;;;5281406;28;20036;-70
2022/04/15 08:15:56;;;;;;;20.25;15.80;;;;;;;;;;5282188;28;20475;-70
2022/04/15 08:18:27;;;;;;;19.00;13.63;;;;;;;;;;5280702;28;20262;-69
2022/04/15 08:20:58;;;;;;;19.30;13.48;;;;;;;;;;5281639;28;20021;-69
2022/04/15 08:23:29;;;;;;;19.60;14.00;;;;;;;;;;5281405;28;20362;-69
2022/04/15 08:26:00;;;;;;;20.23;14.38;;;;;;;;;;5281522;28;20033;-69
2022/04/15 08:28:32;;;;;;;16.38;13.40;;;;;;;;;;5277757;28;20021;-70
2022/04/15 08:31:03;;;;;;;15.63;13.20;;;;;;;;;;5279798;28;20306;-70
2022/04/15 08:33:35;;;;;;;17.72;12.40;;;;;;;;;;5281389;28;20035;-70
2022/04/15 08:36:06;;;;;;;14.30;11.18;;;;;;;;;;5282109;28;20154;-70
2022/04/15 08:38:38;;;;;;;11.93;10.13;;;;;;;;;;5280244;28;20420;-70
2022/04/15 08:41:11;;;;;;;14.70;9.63;;;;;;;;;;5281463;28;20107;-69
2022/04/15 08:43:42;;;;;;;12.95;7.90;;;;;;;;;;5281411;28;20030;-70
2022/04/15 08:46:13;;;;;;;11.25;7.13;;;;;;;;;;5281092;28;20107;-70
2022/04/15 08:48:44;;;;;;;11.55;7.50;;;;;;;;;;5280978;28;20028;-69
2022/04/15 08:51:16;;;;;;;9.50;7.38;;;;;;;;;;5282044;28;20074;-70
2022/04/15 08:53:48;;;;;;;11.07;6.43;;;;;;;;;;5280639;28;20012;-69
2022/04/15 08:56:22;;;;;;;12.38;7.18;;;;;;;;;;5282024;28;20035;-71
2022/04/15 08:58:53;;;;;;;10.27;6.70;;;;;;;;;;5281993;28;20020;-71
2022/04/15 09:01:25;;;;;;;8.35;6.43;;;;;;;;;;5280385;28;20078;-70
2022/04/15 09:03:56;;;;;;;8.98;6.28;;;;;;;;;;5281738;28;20394;-71
2022/04/15 09:06:28;;;;;;;10.98;6.75;;;;;;;;;;5280335;28;20029;-70
2022/04/15 09:09:12;;;;;;;9.13;6.90;;;;;;;;;;5282010;28;20413;-71
2022/04/15 09:11:47;;;;;;;6.80;6.05;;;;;;;;;;5281426;28;20032;-70
2022/04/15 09:14:19;;;;;;;7.05;6.28;;;;;;;;;;5280689;28;20037;-70
2022/04/15 09:16:51;;;;;;;8.15;6.32;;;;;;;;;;5281387;28;20029;-70
2022/04/15 09:19:22;;;;;;;6.97;5.53;;;;;;;;;;5281343;28;20079;-71
2022/04/15 09:21:54;;;;;;;8.40;5.17;;;;;;;;;;5280946;28;20475;-70
2022/04/15 09:24:32;;;;;;;6.95;5.00;;;;;;;;;;5280859;28;20347;-71
2022/04/15 09:27:04;;;;;;;9.23;5.13;;;;;;;;;;5281246;28;20498;-69
2022/04/15 09:29:35;;;;;;;7.82;4.82;;;;;;;;;;5280150;28;20017;-69
2022/04/15 09:32:10;;;;;;;7.75;5.40;;;;;;;;;;5282101;28;20472;-70
2022/04/15 09:34:55;;;;;;;6.10;4.50;;;;;;;;;;5284481;28;20032;-70
2022/04/15 09:37:27;;;;;;;6.65;4.95;;;;;;;;;;5285085;28;20387;-70
2022/04/15 09:40:02;;;;;;;9.85;5.63;;;;;;;;;;5285859;28;20367;-70
2022/04/15 09:42:36;;;;;;;6.78;4.50;;;;;;;;;;5284501;28;20016;-69
2022/04/15 09:45:20;;;;;;;8.32;5.30;;;;;;;;;;5285545;28;20036;-71
2022/04/15 09:47:57;;;;;;;6.25;4.45;;;;;;;;;;5285004;28;20016;-71
2022/04/15 09:50:29;;;;;;;5.65;4.60;;;;;;;;;;5283868;28;20040;-70
2022/04/15 09:53:08;;;;;;;5.78;4.60;;;;;;;;;;5285552;28;20036;-71
2022/04/15 09:55:40;;;;;;;5.55;3.25;;;;;;;;;;5284053;28;20055;-70
2022/04/15 09:58:13;;;;;;;7.22;3.92;;;;;;;;;;5285214;28;20044;-70
2022/04/15 10:00:51;;;;;;;4.95;4.10;;;;;;;;;;5284714;28;20020;-70
2022/04/15 10:03:23;;;;;;;4.00;3.60;;;;;;;;;;5283990;28;20476;-70
2022/04/15 10:05:56;;;;;;;5.72;4.15;;;;;;;;;;5285254;28;20025;-70
2022/04/15 10:08:27;;;;;;;5.72;3.72;;;;;;;;;;5284604;28;20066;-68
2022/04/15 10:10:58;;;;;;;6.07;3.85;;;;;;;;;;5284431;28;20085;-67
2022/04/15 10:13:30;;;;;;;4.90;3.03;;;;;;;;;;5284377;28;20051;-67
2022/04/15 10:16:02;;;;;;;5.50;2.80;;;;;;;;;;5285118;28;20289;-69
2022/04/15 10:18:33;;;;;;;4.32;2.83;;;;;;;;;;5283495;28;20022;-70
2022/04/15 10:21:05;;;;;;;5.18;2.80;;;;;;;;;;5284972;28;20463;-70
2022/04/15 10:23:36;;;;;;;4.60;2.60;;;;;;;;;;5283646;28;20024;-70
2022/04/15 10:26:08;;;;;;;3.83;2.80;;;;;;;;;;5284878;28;20115;-70
2022/04/15 10:28:42;;;;;;;3.70;2.88;;;;;;;;;;5284155;28;20024;-70
2022/04/15 10:31:16;;;;;;;4.82;3.20;;;;;;;;;;5284075;28;20024;-69
2022/04/15 10:33:49;;;;;;;4.22;3.13;;;;;;;;;;5284197;28;20044;-70
2022/04/15 10:36:22;;;;;;;6.55;3.72;;;;;;;;;;5284657;28;20043;-70
2022/04/15 10:39:06;;;;;;;5.47;3.30;;;;;;;;;;5283030;28;20108;-70
2022/04/15 10:41:40;;;;;;;7.95;3.88;;;;;;;;;;5284113;28;20021;-70
2022/04/15 10:44:11;;;;;;;4.85;3.42;;;;;;;;;;5283634;28;20039;-69
2022/04/15 10:46:42;;;;;;;4.57;2.80;;;;;;;;;;5283184;28;20527;-70
2022/04/15 10:49:23;;;;;;;7.60;2.70;;;;;;;;;;5284830;28;20095;-69
2022/04/15 10:51:59;;;;;;;5.85;2.80;;;;;;;;;;5283714;28;20259;-69
2022/04/15 10:54:30;;;;;;;6.10;3.33;;;;;;;;;;5283850;28;20008;-70
2022/04/15 10:57:08;;;;;;;7.77;2.87;;;;;;;;;;5284514;28;20020;-70
2022/04/15 11:02:38;;;;;;;9.18;2.70;;;;;;;;;;5283858;28;20041;-72
2022/04/15 11:05:11;;;;;;;4.18;2.92;;;;;;;;;;5283853;28;20042;-72
2022/04/15 11:08:03;;;;;;;4.32;2.83;;;;;;;;;;5282436;28;20013;-69
2022/04/15 11:10:47;;;;;;;3.85;2.60;;;;;;;;;;5282722;28;20051;-71
2022/04/15 11:13:28;;;;;;;7.25;3.80;;;;;;;;;;5282558;28;20074;-71
2022/04/15 11:16:24;;;;;;;3.33;2.58;;;;;;;;;;5284078;28;20107;-72
2022/04/15 11:18:58;;;;;;;6.30;2.97;;;;;;;;;;5283970;28;20028;-70
2022/04/15 11:21:35;;;;;;;4.30;2.50;;;;;;;;;;5282225;28;20021;-68
2022/04/15 11:24:10;;;;;;;5.07;2.70;;;;;;;;;;5283588;28;20037;-71
2022/04/15 11:26:42;;;;;;;5.03;2.47;;;;;;;;;;5282940;28;20067;-71
2022/04/15 11:29:14;;;;;;;4.47;2.72;;;;;;;;;;5283564;28;20027;-70
2022/04/15 11:31:46;;;;;;;4.35;2.53;;;;;;;;;;5283078;28;20012;-70
2022/04/15 11:34:17;;;;;;;3.90;3.13;;;;;;;;;;5282621;28;20020;-71
2022/04/15 11:36:49;;;;;;;5.28;2.85;;;;;;;;;;5283136;28;20017;-70
2022/04/15 11:39:22;;;;;;;6.85;2.97;;;;;;;;;;5283120;28;20441;-71
2022/04/15 11:41:54;;;;;;;4.47;2.47;;;;;;;;;;5282365;28;20043;-69
2022/04/15 11:44:32;;;;;;;5.22;2.60;;;;;;;;;;5282557;28;20028;-71
2022/04/15 11:47:25;;;;;;;3.92;2.70;;;;;;;;;;5283313;28;20486;-70
2022/04/15 11:49:56;;;;;;;4.13;2.70;;;;;;;;;;5282420;28;20020;-71
2022/04/15 11:52:27;;;;;;;4.05;2.50;;;;;;;;;;5282510;28;20016;-70
2022/04/15 11:54:59;;;;;;;4.35;2.72;;;;;;;;;;5282167;28;20107;-69
2022/04/15 11:57:30;;;;;;;3.60;3.30;;;;;;;;;;5281638;28;20016;-68
2022/04/15 12:00:02;;;;;;;3.72;3.00;;;;;;;;;;5282915;28;20060;-69
2022/04/15 12:02:33;;;;;;;6.03;3.20;;;;;;;;;;5281599;28;20368;-69
2022/04/15 12:05:05;;;;;;;7.22;3.35;;;;;;;;;;5282813;28;20103;-68
2022/04/15 12:07:36;;;;;;;3.65;2.78;;;;;;;;;;5282187;28;20294;-70
2022/04/15 12:10:07;;;;;;;4.43;2.95;;;;;;;;;;5281890;28;20376;-72
2022/04/15 12:12:40;;;;;;;3.80;2.60;;;;;;;;;;5281664;28;20690;-70
2022/04/15 12:15:13;;;;;;;4.05;3.08;;;;;;;;;;5282849;28;20101;-70
2022/04/15 12:17:45;;;;;;;4.00;3.10;;;;;;;;;;5281156;28;20028;-69
2022/04/15 12:20:17;;;;;;;4.03;2.72;;;;;;;;;;5282491;28;20100;-71
2022/04/15 12:22:49;;;;;;;4.68;2.72;;;;;;;;;;5282283;28;20091;-71
2022/04/15 12:25:20;;;;;;;2.78;2.47;;;;;;;;;;5281343;28;20032;-71
2022/04/15 12:27:53;;;;;;;5.53;2.28;;;;;;;;;;5282167;28;20021;-71
2022/04/15 12:30:38;;;;;;;6.22;2.33;;;;;;;;;;5280777;28;20107;-71
2022/04/15 12:33:12;;;;;;;4.60;2.65;;;;;;;;;;5282366;28;20360;-71
2022/04/15 12:35:56;;;;;;;4.75;2.63;;;;;;;;;;5281802;28;20383;-71
2022/04/15 12:38:51;;;;;;;5.53;2.65;;;;;;;;;;5280696;28;20020;-72
2022/04/15 12:41:23;;;;;;;5.20;2.25;;;;;;;;;;5281399;28;20028;-71
2022/04/15 12:44:14;;;;;;;2.50;2.25;;;;;;;;;;5282199;28;20028;-71
2022/04/15 12:46:54;;;;;;;3.33;2.10;;;;;;;;;;5281453;28;20025;-71
2022/04/15 12:49:27;;;;;;;4.13;2.40;;;;;;;;;;5281543;28;20054;-71
2022/04/15 12:52:07;;;;;;;3.22;2.42;;;;;;;;;;5281485;28;20417;-71
2022/04/15 12:54:54;;;;;;;4.97;2.42;;;;;;;;;;5281450;28;20032;-71
2022/04/15 12:57:32;;;;;;;6.53;2.72;;;;;;;;;;5281213;28;20020;-72
2022/04/15 13:00:05;;;;;;;5.20;2.80;;;;;;;;;;5277220;28;20479;-72
2022/04/15 13:02:37;;;;;;;5.55;2.55;;;;;;;;;;5280826;28;20259;-70
2022/04/15 13:05:09;;;;;;;3.08;2.40;;;;;;;;;;5281697;28;20028;-70
2022/04/15 13:07:40;;;;;;;4.90;2.78;;;;;;;;;;5279757;28;20028;-70
2022/04/15 13:10:11;;;;;;;5.90;2.70;;;;;;;;;;5281757;28;20380;-70
2022/04/15 13:12:43;;;;;;;5.32;2.92;;;;;;;;;;5280336;28;20283;-70
2022/04/15 13:15:14;;;;;;;3.22;2.88;;;;;;;;;;5281884;28;20034;-70
2022/04/15 13:17:45;;;;;;;3.85;2.30;;;;;;;;;;5281244;28;20017;-70
2022/04/15 13:20:16;;;;;;;6.10;2.40;;;;;;;;;;5280966;28;20016;-69
2022/04/15 13:22:47;;;;;;;3.08;2.15;;;;;;;;;;5280203;28;20067;-69
2022/04/15 13:25:19;;;;;;;2.95;2.55;;;;;;;;;;5281555;28;20097;-70
2022/04/15 13:27:50;;;;;;;5.55;2.67;;;;;;;;;;5280027;28;20028;-69
2022/04/15 13:30:21;;;;;;;4.32;2.10;;;;;;;;;;5281028;28;20421;-71
2022/04/15 13:32:53;;;;;;;5.53;2.45;;;;;;;;;;5281401;28;20020;-70
2022/04/15 13:35:24;;;;;;;3.42;2.15;;;;;;;;;;5280554;28;20468;-69
2022/04/15 13:37:55;;;;;;;5.80;3.67;;;;;;;;;;5281730;28;20021;-69
2022/04/15 13:40:27;;;;;;;3.75;2.28;;;;;;;;;;5280179;28;20325;-68
2022/04/15 13:42:58;;;;;;;3.70;2.08;;;;;;;;;;5280880;28;20832;-69
2022/04/15 13:45:29;;;;;;;4.18;2.70;;;;;;;;;;5280657;28;20765;-68
2022/04/15 13:48:00;;;;;;;4.97;2.55;;;;;;;;;;5280766;28;20027;-68
2022/04/15 13:50:31;;;;;;;4.45;2.65;;;;;;;;;;5281074;28;20029;-69
2022/04/15 13:58:43;;;;;;;5.75;3.10;;;;;;;;;;5280890;28;20452;-70
2022/04/15 14:01:27;;;;;;;5.65;3.65;;;;;;;;;;5281356;28;20036;-68
2022/04/15 14:03:58;;;;;;;5.25;3.25;;;;;;;;;;5281216;28;20287;-68
2022/04/15 14:06:30;;;;;;;5.00;3.13;;;;;;;;;;5280778;28;20028;-68
2022/04/15 14:09:01;;;;;;;4.03;3.25;;;;;;;;;;5280656;28;20128;-68
2022/04/15 14:11:36;;;;;;;4.60;2.83;;;;;;;;;;5280743;28;20031;-69
2022/04/15 14:14:08;;;;;;;6.47;3.30;;;;;;;;;;5281109;28;20415;-69
2022/04/15 14:16:42;;;;;;;4.88;4.00;;;;;;;;;;5279760;28;20024;-68
2022/04/15 14:19:14;;;;;;;5.18;3.65;;;;;;;;;;5281640;28;20020;-70
2022/04/15 14:21:45;;;;;;;5.50;3.05;;;;;;;;;;5284146;28;20022;-70
2022/04/15 14:24:16;;;;;;;6.82;3.10;;;;;;;;;;5283817;28;20032;-69
2022/04/15 14:26:47;;;;;;;4.82;2.88;;;;;;;;;;5283509;28;20442;-70
2022/04/15 14:29:18;;;;;;;6.22;3.22;;;;;;;;;;5284196;28;20271;-72
2022/04/15 14:31:50;;;;;;;3.00;2.70;;;;;;;;;;5283712;28;20731;-71
2022/04/15 14:34:22;;;;;;;6.53;3.88;;;;;;;;;;5284179;28;20274;-73
2022/04/15 14:36:53;;;;;;;7.80;3.53;;;;;;;;;;5283838;28;20017;-72
2022/04/15 14:39:24;;;;;;;3.20;2.90;;;;;;;;;;5284025;28;20017;-72
2022/04/15 14:41:55;;;;;;;3.83;2.60;;;;;;;;;;5284381;28;20069;-72
2022/04/15 14:44:26;;;;;;;6.40;4.10;;;;;;;;;;5282877;28;20287;-72
2022/04/15 14:46:57;;;;;;;4.90;3.70;;;;;;;;;;5284109;28;20267;-73
2022/04/15 14:49:29;;;;;;;4.68;3.50;;;;;;;;;;5283492;28;20626;-73
2022/04/15 14:52:00;;;;;;;8.15;3.80;;;;;;;;;;5283178;28;20263;-73
2022/04/15 14:54:31;;;;;;;4.25;3.13;;;;;;;;;;5283537;28;20299;-73
2022/04/15 14:57:04;;;;;;;5.25;3.92;;;;;;;;;;5284195;28;20047;-73
2022/04/15 14:59:35;;;;;;;7.47;4.00;;;;;;;;;;5282543;28;20259;-73
2022/04/15 15:02:07;;;;;;;6.43;4.15;;;;;;;;;;5284051;28;20027;-73
2022/04/15 15:04:38;;;;;;;7.80;4.75;;;;;;;;;;5283163;28;20307;-74